Time;durP1;ratioP1;P1;durP2;ratioP2;P2;SDS_P1;SDS_P2;PMS_P1;PMS_P2;Temp;Humidity;BMP_temperature;BMP_pressure;BME280_temperature;BME280_humidity;BME280_pressure;Samples;Min_cycle;Max_cycle;Signal;HPM_P1;HPM_P2
2022/11/21 00:00:47;;;;;;;65.43;35.07;;;3.00;99.90;;;;;;5007087;28;20052;-79
2022/11/21 00:03:14;;;;;;;53.40;30.90;;;3.00;99.90;;;;;;5043821;28;20033;-80
2022/11/21 00:05:43;;;;;;;63.83;34.70;;;3.00;99.90;;;;;;5040885;28;20045;-79
2022/11/21 00:08:11;;;;;;;67.40;35.83;;;2.90;99.90;;;;;;5041265;28;20040;-81
2022/11/21 00:10:38;;;;;;;68.20;36.80;;;2.90;99.90;;;;;;5025516;28;20040;-79
2022/11/21 00:13:06;;;;;;;62.83;33.05;;;2.90;99.90;;;;;;5047228;28;20475;-80
2022/11/21 00:15:34;;;;;;;71.93;38.22;;;2.90;99.90;;;;;;5028084;28;20056;-79
2022/11/21 00:18:04;;;;;;;67.70;37.28;;;2.90;99.90;;;;;;5043437;28;20040;-79
2022/11/21 00:20:30;;;;;;;50.73;29.13;;;2.90;99.90;;;;;;5026560;28;20041;-77
2022/11/21 00:22:57;;;;;;;54.95;31.75;;;2.90;99.90;;;;;;5046109;28;20415;-79
2022/11/21 00:25:23;;;;;;;54.90;30.23;;;2.90;99.90;;;;;;5047171;28;20047;-80
2022/11/21 00:27:51;;;;;;;61.92;34.92;;;2.90;99.90;;;;;;5039095;28;20412;-79
2022/11/21 00:30:17;;;;;;;65.32;36.08;;;2.90;99.90;;;;;;5025353;28;20033;-80
2022/11/21 00:32:43;;;;;;;55.33;30.90;;;2.90;99.90;;;;;;5030015;28;20044;-80
2022/11/21 00:35:10;;;;;;;55.63;30.75;;;2.90;99.90;;;;;;5045314;28;20051;-80
2022/11/21 00:37:36;;;;;;;64.50;33.30;;;2.90;99.90;;;;;;5027471;28;20380;-79
2022/11/21 00:40:03;;;;;;;65.00;36.10;;;2.90;99.90;;;;;;5028297;28;20052;-80
2022/11/21 00:42:29;;;;;;;59.80;31.98;;;2.90;99.90;;;;;;5028117;28;20045;-80
2022/11/21 00:44:55;;;;;;;63.53;34.20;;;2.90;99.90;;;;;;5032744;28;20523;-80
2022/11/21 00:47:21;;;;;;;59.15;32.03;;;2.90;99.90;;;;;;5040941;28;20597;-79
2022/11/21 00:49:48;;;;;;;64.82;34.22;;;2.90;99.90;;;;;;5029594;28;20033;-79
2022/11/21 00:52:15;;;;;;;54.95;27.85;;;2.90;99.90;;;;;;5045218;28;20037;-79
2022/11/21 00:54:42;;;;;;;57.33;30.87;;;2.90;99.90;;;;;;5027095;28;20048;-80
2022/11/21 00:57:08;;;;;;;52.90;27.83;;;2.90;99.90;;;;;;5029911;28;20029;-78
2022/11/21 00:59:34;;;;;;;52.72;28.83;;;2.90;99.90;;;;;;5047108;28;20029;-79
2022/11/21 01:02:01;;;;;;;64.97;34.83;;;2.90;99.90;;;;;;5038402;28;20598;-82
2022/11/21 01:04:32;;;;;;;58.73;32.30;;;2.90;99.90;;;;;;5051950;28;20045;-79
2022/11/21 01:06:58;;;;;;;61.73;32.60;;;2.90;99.90;;;;;;5032218;28;20036;-77
2022/11/21 01:09:24;;;;;;;55.57;29.67;;;2.90;99.90;;;;;;5042095;28;20033;-78
2022/11/21 01:11:51;;;;;;;59.57;31.33;;;2.90;99.90;;;;;;5048408;28;20043;-79
2022/11/21 01:14:17;;;;;;;56.17;30.23;;;2.90;99.90;;;;;;5033518;28;20377;-79
2022/11/21 01:16:43;;;;;;;59.33;32.20;;;2.90;99.90;;;;;;5034065;28;20029;-78
2022/11/21 01:19:10;;;;;;;62.78;33.90;;;3.00;99.90;;;;;;5046234;28;20499;-79
2022/11/21 01:21:36;;;;;;;73.10;38.58;;;2.90;99.90;;;;;;5017589;28;20036;-77
2022/11/21 01:24:02;;;;;;;75.18;41.60;;;2.90;99.90;;;;;;5037585;28;20115;-80
2022/11/21 01:26:31;;;;;;;87.70;43.37;;;2.90;99.90;;;;;;5032042;28;20033;-81
2022/11/21 01:28:58;;;;;;;67.20;34.67;;;2.90;99.90;;;;;;5028397;28;20041;-79
2022/11/21 01:31:27;;;;;;;65.30;35.40;;;2.80;99.90;;;;;;5046264;28;20033;-80
2022/11/21 01:33:55;;;;;;;66.80;34.22;;;2.80;99.90;;;;;;5030066;28;20052;-79
2022/11/21 01:36:31;;;;;;;64.83;34.27;;;2.90;99.90;;;;;;5047690;28;20348;-80
2022/11/21 01:39:00;;;;;;;64.68;35.28;;;2.80;99.90;;;;;;5029315;28;20416;-80
2022/11/21 01:41:35;;;;;;;72.78;37.55;;;2.80;99.90;;;;;;5015811;28;20048;-81
2022/11/21 01:44:29;;;;;;;63.37;31.70;;;2.80;99.90;;;;;;5046737;28;20033;-79
2022/11/21 01:46:55;;;;;;;55.83;28.27;;;2.80;99.90;;;;;;5030777;28;20045;-80
2022/11/21 01:49:31;;;;;;;56.50;29.87;;;2.80;99.90;;;;;;5015813;28;20033;-81
2022/11/21 01:52:07;;;;;;;67.60;35.77;;;2.80;99.90;;;;;;5045557;28;20048;-79
2022/11/21 01:54:40;;;;;;;62.27;32.67;;;2.80;99.90;;;;;;5033584;28;20052;-80
2022/11/21 01:57:12;;;;;;;64.63;34.75;;;2.80;99.90;;;;;;5030106;28;20033;-77
2022/11/21 01:59:47;;;;;;;71.20;36.42;;;2.80;99.90;;;;;;5048743;28;20441;-81
2022/11/21 02:02:17;;;;;;;61.97;33.00;;;2.80;99.90;;;;;;5048113;28;20048;-82
2022/11/21 02:04:45;;;;;;;63.17;32.73;;;2.80;99.90;;;;;;5028464;28;20041;-79
2022/11/21 02:07:13;;;;;;;80.27;38.27;;;2.80;99.90;;;;;;5047274;28;20488;-79
2022/11/21 02:09:44;;;;;;;63.90;32.60;;;2.80;99.90;;;;;;5017459;28;20037;-81
2022/11/21 02:12:17;;;;;;;57.87;29.80;;;2.80;99.90;;;;;;5049921;28;20041;-80
2022/11/21 02:14:43;;;;;;;55.42;28.52;;;2.80;99.90;;;;;;5053304;28;20404;-80
2022/11/21 02:17:13;;;;;;;51.00;26.33;;;2.80;99.90;;;;;;5049150;28;20041;-80
2022/11/21 02:19:48;;;;;;;48.47;25.63;;;2.80;99.90;;;;;;5049573;28;20029;-79
2022/11/21 02:22:22;;;;;;;45.97;24.70;;;2.80;99.90;;;;;;5033202;28;20049;-80
2022/11/21 02:25:03;;;;;;;55.13;27.70;;;2.80;99.90;;;;;;5015695;28;20029;-79
2022/11/21 02:27:29;;;;;;;56.97;29.20;;;2.90;99.90;;;;;;5020776;28;20036;-81
2022/11/21 02:29:56;;;;;;;55.10;30.03;;;2.90;99.90;;;;;;5016700;28;20484;-80
2022/11/21 02:32:30;;;;;;;59.43;29.90;;;2.90;99.90;;;;;;5047054;28;20036;-78
2022/11/21 02:34:56;;;;;;;57.45;29.35;;;2.90;99.90;;;;;;5051637;28;20387;-79
2022/11/21 02:37:23;;;;;;;57.57;28.17;;;2.90;99.90;;;;;;5049062;28;20455;-80
2022/11/21 02:39:49;;;;;;;43.92;24.33;;;3.00;99.90;;;;;;5017530;28;20037;-78
2022/11/21 02:42:32;;;;;;;40.50;20.47;;;2.90;99.90;;;;;;5018511;28;20411;-80
2022/11/21 02:45:20;;;;;;;59.00;30.42;;;3.00;99.90;;;;;;5051100;28;20035;-81
2022/11/21 02:47:49;;;;;;;56.10;29.33;;;2.90;99.90;;;;;;5044648;28;20404;-76
2022/11/21 02:50:22;;;;;;;57.70;29.13;;;2.90;99.90;;;;;;5017958;28;20036;-81
2022/11/21 02:52:49;;;;;;;63.80;32.55;;;2.90;99.90;;;;;;5034087;28;20514;-81
2022/11/21 02:55:15;;;;;;;64.25;31.17;;;2.90;99.90;;;;;;5048583;28;20395;-81
2022/11/21 02:57:42;;;;;;;46.63;25.60;;;2.90;99.90;;;;;;5032975;28;20037;-79
2022/11/21 03:00:10;;;;;;;61.20;31.43;;;2.90;99.90;;;;;;5049076;28;20048;-81
2022/11/21 03:02:37;;;;;;;58.40;28.87;;;2.90;99.90;;;;;;5044713;28;20064;-81
2022/11/21 03:05:05;;;;;;;67.60;31.77;;;2.90;99.90;;;;;;5055287;28;20043;-80
2022/11/21 03:07:32;;;;;;;70.78;34.28;;;2.90;99.90;;;;;;5028092;28;20403;-80
2022/11/21 03:09:58;;;;;;;61.35;30.90;;;2.80;99.90;;;;;;5053056;28;20029;-77
2022/11/21 03:12:24;;;;;;;63.10;30.83;;;2.80;99.90;;;;;;5050406;28;20032;-81
2022/11/21 03:14:51;;;;;;;70.77;34.53;;;2.80;99.90;;;;;;5049626;28;20033;-81
2022/11/21 03:17:17;;;;;;;70.83;35.33;;;2.80;99.90;;;;;;5048070;28;20036;-80
2022/11/21 03:19:43;;;;;;;64.47;34.97;;;2.70;99.90;;;;;;5048962;28;20033;-77
2022/11/21 03:22:13;;;;;;;66.93;33.00;;;2.70;99.90;;;;;;5051116;28;20063;-82
2022/11/21 03:24:40;;;;;;;56.30;26.60;;;2.70;99.90;;;;;;5051151;28;20040;-81
2022/11/21 03:27:07;;;;;;;63.63;30.63;;;2.70;99.90;;;;;;5047910;28;20048;-77
2022/11/21 03:29:33;;;;;;;57.10;27.45;;;2.70;99.90;;;;;;5032237;28;20066;-80
2022/11/21 03:31:59;;;;;;;56.85;27.02;;;2.70;99.90;;;;;;5052163;28;20041;-80
2022/11/21 03:34:26;;;;;;;54.03;27.13;;;2.70;99.90;;;;;;5033887;28;20629;-81
2022/11/21 03:36:52;;;;;;;58.37;28.50;;;2.70;99.90;;;;;;5021708;28;20036;-79
2022/11/21 03:39:19;;;;;;;76.43;33.65;;;2.70;99.90;;;;;;5046330;28;20032;-81
2022/11/21 03:41:45;;;;;;;56.50;28.13;;;2.70;99.90;;;;;;5048518;28;20064;-81
2022/11/21 03:44:12;;;;;;;52.17;24.77;;;2.70;99.90;;;;;;5048816;28;20033;-81
2022/11/21 03:46:44;;;;;;;71.13;32.42;;;2.70;99.90;;;;;;5031768;28;20035;-80
2022/11/21 03:49:11;;;;;;;63.95;30.55;;;2.70;99.90;;;;;;5048204;28;20032;-78
2022/11/21 03:51:38;;;;;;;59.27;28.07;;;2.70;99.90;;;;;;5049037;28;20530;-81
2022/11/21 03:54:06;;;;;;;55.43;26.57;;;2.70;99.90;;;;;;5052837;28;20243;-77
2022/11/21 03:56:33;;;;;;;61.22;28.80;;;2.70;99.90;;;;;;5033204;28;20040;-79
2022/11/21 03:58:59;;;;;;;67.10;30.70;;;2.70;99.90;;;;;;5046939;28;20041;-79
2022/11/21 04:01:26;;;;;;;56.03;28.77;;;2.80;99.90;;;;;;5048981;28;20068;-78
2022/11/21 04:03:52;;;;;;;54.38;28.83;;;2.80;99.90;;;;;;5034702;28;20038;-77
2022/11/21 04:06:21;;;;;;;64.10;29.43;;;2.80;99.90;;;;;;5033414;28;20036;-79
2022/11/21 04:08:48;;;;;;;64.80;29.53;;;2.80;99.90;;;;;;5049035;28;20052;-81
2022/11/21 04:11:15;;;;;;;61.00;30.03;;;2.80;99.90;;;;;;5019718;28;20585;-81
2022/11/21 04:13:41;;;;;;;62.03;29.40;;;2.80;99.90;;;;;;5032047;28;20059;-77
2022/11/21 04:16:08;;;;;;;56.70;27.87;;;2.90;99.90;;;;;;5049310;28;20033;-78
2022/11/21 04:18:35;;;;;;;62.85;28.30;;;2.90;99.90;;;;;;5031142;28;20072;-79
2022/11/21 04:21:03;;;;;;;56.13;28.60;;;2.90;99.90;;;;;;5048861;28;20041;-79
2022/11/21 04:23:30;;;;;;;59.95;27.80;;;2.90;99.90;;;;;;5018526;28;20036;-80
2022/11/21 04:25:57;;;;;;;57.47;28.67;;;2.90;99.90;;;;;;5017736;28;20032;-81
2022/11/21 04:28:23;;;;;;;63.60;30.73;;;2.90;99.90;;;;;;5046450;28;20519;-81
2022/11/21 04:30:49;;;;;;;65.33;31.03;;;2.90;99.90;;;;;;5054343;28;20708;-81
2022/11/21 04:33:17;;;;;;;63.03;29.60;;;3.00;99.90;;;;;;5031021;28;20039;-80
2022/11/21 04:35:44;;;;;;;60.88;29.33;;;2.90;99.90;;;;;;5034252;28;20033;-80
2022/11/21 04:38:12;;;;;;;57.80;27.30;;;2.90;99.90;;;;;;5046502;28;20067;-80
2022/11/21 04:40:39;;;;;;;57.75;26.90;;;3.00;99.90;;;;;;5050406;28;20048;-79
2022/11/21 04:43:05;;;;;;;60.97;27.00;;;3.00;99.90;;;;;;5031566;28;20443;-80
2022/11/21 04:45:32;;;;;;;62.70;29.47;;;3.00;99.90;;;;;;5031669;28;20040;-79
2022/11/21 04:47:58;;;;;;;61.72;28.08;;;3.00;99.90;;;;;;5033076;28;20036;-81
2022/11/21 04:50:24;;;;;;;64.32;29.67;;;3.00;99.90;;;;;;5051911;28;20040;-81
2022/11/21 04:52:52;;;;;;;71.18;31.83;;;3.00;99.90;;;;;;5031262;28;20476;-78
2022/11/21 04:55:19;;;;;;;65.20;30.40;;;3.00;99.90;;;;;;5047009;28;20037;-81
2022/11/21 04:57:45;;;;;;;59.85;30.02;;;3.00;99.90;;;;;;5046149;28;20606;-81
2022/11/21 05:00:13;;;;;;;64.90;30.63;;;3.00;99.90;;;;;;5030939;28;20666;-79
2022/11/21 05:02:40;;;;;;;65.35;30.63;;;3.00;99.90;;;;;;5030972;28;20044;-80
2022/11/21 05:05:06;;;;;;;69.15;32.53;;;3.00;99.90;;;;;;5015926;28;20581;-81
2022/11/21 05:07:33;;;;;;;69.32;30.92;;;2.90;99.90;;;;;;5027473;28;20047;-80
2022/11/21 05:09:59;;;;;;;82.50;31.27;;;2.90;99.90;;;;;;5033343;28;20044;-78
2022/11/21 05:15:10;;;;;;;79.38;33.13;;;2.80;99.90;;;;;;5045892;28;20029;-80
2022/11/21 05:17:37;;;;;;;58.33;24.70;;;2.80;99.90;;;;;;5030355;28;20502;-77
2022/11/21 05:20:04;;;;;;;82.85;31.58;;;2.80;99.90;;;;;;5048409;28;20071;-79
2022/11/21 05:22:30;;;;;;;74.70;31.33;;;2.80;99.90;;;;;;5050445;28;20075;-79
2022/11/21 05:24:56;;;;;;;74.93;31.38;;;2.80;99.90;;;;;;5049395;28;20045;-80
2022/11/21 05:27:23;;;;;;;84.30;34.08;;;2.80;99.90;;;;;;5043738;28;20060;-79
2022/11/21 05:29:49;;;;;;;68.40;30.03;;;2.90;99.90;;;;;;5047736;28;20040;-77
2022/11/21 05:32:16;;;;;;;83.80;33.50;;;2.90;99.90;;;;;;5044508;28;20049;-81
2022/11/21 05:34:42;;;;;;;75.20;27.00;;;2.90;99.90;;;;;;5029159;28;20037;-81
2022/11/21 05:37:08;;;;;;;75.07;22.90;;;2.90;99.90;;;;;;5035686;28;20037;-79
2022/11/21 05:39:35;;;;;;;52.80;19.60;;;2.90;99.90;;;;;;5046229;28;20272;-78
2022/11/21 05:42:01;;;;;;;74.85;25.05;;;2.90;99.90;;;;;;5030104;28;20044;-78
2022/11/21 05:44:27;;;;;;;82.50;24.47;;;2.90;99.90;;;;;;5053442;28;20049;-79
2022/11/21 05:46:54;;;;;;;52.70;19.90;;;2.90;99.90;;;;;;5050484;28;20033;-80
2022/11/21 05:49:20;;;;;;;80.25;25.98;;;2.90;99.90;;;;;;5029388;28;20037;-79
2022/11/21 05:51:46;;;;;;;61.50;24.03;;;2.90;99.90;;;;;;5033741;28;20484;-79
2022/11/21 05:54:14;;;;;;;51.97;21.60;;;2.90;99.90;;;;;;5050658;28;20045;-81
2022/11/21 05:56:40;;;;;;;74.63;25.42;;;2.90;99.90;;;;;;5019027;28;20361;-79
2022/11/21 05:59:09;;;;;;;72.73;24.53;;;2.90;99.90;;;;;;5048684;28;20048;-81
2022/11/21 06:04:20;;;;;;;75.90;24.17;;;2.90;99.90;;;;;;5051184;28;20080;-81
2022/11/21 06:06:46;;;;;;;101.72;25.15;;;2.90;99.90;;;;;;5017597;28;20036;-79
2022/11/21 06:09:12;;;;;;;87.50;26.43;;;2.90;99.90;;;;;;5030095;28;20075;-79
2022/11/21 06:11:39;;;;;;;90.65;28.88;;;3.00;99.90;;;;;;5040036;28;20041;-80
2022/11/21 06:14:05;;;;;;;136.50;28.03;;;2.90;99.90;;;;;;5020203;28;20484;-77
2022/11/21 06:16:31;;;;;;;109.37;25.97;;;2.90;99.90;;;;;;5048799;28;20033;-78
2022/11/21 06:18:58;;;;;;;155.03;26.63;;;3.00;99.90;;;;;;5046577;28;20067;-80
2022/11/21 06:21:27;;;;;;;79.57;21.87;;;2.90;99.90;;;;;;5049902;28;20036;-82
2022/11/21 06:23:55;;;;;;;137.07;32.97;;;2.90;99.90;;;;;;5031910;28;20511;-76
2022/11/21 06:26:24;;;;;;;156.83;26.03;;;3.00;99.90;;;;;;5030147;28;20032;-80
2022/11/21 06:28:51;;;;;;;157.07;28.53;;;3.00;99.90;;;;;;5028489;28;20040;-77
2022/11/21 06:31:20;;;;;;;224.70;31.17;;;3.00;99.90;;;;;;5046982;28;20037;-78
2022/11/21 06:33:50;;;;;;;84.35;25.65;;;3.00;99.90;;;;;;5049934;28;20040;-75
2022/11/21 06:36:16;;;;;;;106.00;27.03;;;3.00;99.90;;;;;;5050387;28;20036;-77
2022/11/21 06:38:44;;;;;;;165.13;31.17;;;3.00;99.90;;;;;;5049307;28;20045;-78
2022/11/21 06:41:13;;;;;;;63.28;22.25;;;3.00;99.90;;;;;;5053998;28;20376;-75
2022/11/21 06:43:40;;;;;;;110.87;22.23;;;3.00;99.90;;;;;;5030312;28;20395;-76
2022/11/21 06:46:06;;;;;;;155.82;29.25;;;3.10;99.90;;;;;;5037178;28;20041;-79
2022/11/21 06:48:34;;;;;;;262.63;36.50;;;3.10;99.90;;;;;;5048129;28;20384;-78
2022/11/21 06:51:14;;;;;;;160.40;28.50;;;3.10;99.90;;;;;;5030727;28;20052;-79
2022/11/21 06:53:40;;;;;;;117.07;28.73;;;3.10;99.90;;;;;;5033029;28;20518;-78
2022/11/21 06:56:07;;;;;;;137.15;27.58;;;3.10;99.90;;;;;;5050433;28;20025;-76
2022/11/21 06:58:33;;;;;;;139.50;26.27;;;3.10;99.90;;;;;;5032727;28;20032;-77
2022/11/21 07:01:04;;;;;;;80.20;25.87;;;3.10;99.90;;;;;;5049762;28;20511;-78
2022/11/21 07:03:31;;;;;;;86.30;21.13;;;3.10;99.90;;;;;;5051170;28;20033;-78
2022/11/21 07:06:00;;;;;;;172.13;28.47;;;3.20;99.90;;;;;;5050419;28;20475;-78
2022/11/21 07:08:28;;;;;;;183.37;28.30;;;3.20;99.90;;;;;;5013413;28;20037;-78
2022/11/21 07:10:54;;;;;;;146.00;26.60;;;3.20;99.90;;;;;;5052232;28;20040;-78
2022/11/21 07:13:21;;;;;;;157.02;27.73;;;3.20;99.90;;;;;;5031663;28;20039;-77
2022/11/21 07:15:52;;;;;;;130.37;26.73;;;3.10;99.90;;;;;;5051726;28;20037;-78
2022/11/21 07:18:20;;;;;;;95.93;26.73;;;3.20;99.90;;;;;;5026566;28;20040;-79
2022/11/21 07:20:47;;;;;;;84.80;23.40;;;3.20;99.90;;;;;;5051945;28;20049;-77
2022/11/21 07:23:14;;;;;;;79.35;24.75;;;3.10;99.90;;;;;;5050320;28;20033;-75
2022/11/21 07:25:41;;;;;;;63.58;21.08;;;3.20;99.90;;;;;;5045811;28;20045;-76
2022/11/21 07:28:08;;;;;;;145.07;27.73;;;3.20;99.90;;;;;;5029391;28;20029;-79
2022/11/21 07:30:35;;;;;;;71.77;26.63;;;3.20;99.90;;;;;;5051949;28;20033;-79
2022/11/21 07:33:04;;;;;;;69.18;26.63;;;3.20;99.90;;;;;;5043762;28;20640;-76
2022/11/21 07:35:32;;;;;;;77.10;25.87;;;3.20;99.90;;;;;;5029918;28;20037;-77
2022/11/21 07:37:58;;;;;;;58.70;21.40;;;3.20;99.90;;;;;;5045053;28;20036;-78
2022/11/21 07:40:24;;;;;;;53.28;20.58;;;3.30;99.90;;;;;;5033024;28;20518;-81
2022/11/21 07:42:51;;;;;;;71.72;25.38;;;3.30;99.90;;;;;;5045170;28;20041;-78
2022/11/21 07:45:17;;;;;;;60.30;22.80;;;3.30;99.90;;;;;;5045493;28;20108;-77
2022/11/21 07:47:44;;;;;;;60.47;23.02;;;3.30;99.90;;;;;;5044953;28;20412;-76
2022/11/21 07:50:11;;;;;;;87.68;32.05;;;3.30;99.90;;;;;;5050182;28;20032;-78
2022/11/21 07:52:38;;;;;;;71.85;28.42;;;3.30;99.90;;;;;;5045260;28;20035;-75
2022/11/21 07:55:05;;;;;;;83.00;26.85;;;3.30;99.90;;;;;;5031420;28;20095;-78
2022/11/21 07:57:32;;;;;;;78.17;29.00;;;3.30;99.90;;;;;;5049066;28;20044;-78
2022/11/21 07:59:58;;;;;;;78.30;29.43;;;3.30;99.90;;;;;;5051130;28;20036;-76
2022/11/21 08:02:27;;;;;;;72.20;27.80;;;3.30;99.90;;;;;;5045445;28;20048;-77
2022/11/21 08:04:54;;;;;;;95.28;30.40;;;3.40;99.90;;;;;;5030227;28;20480;-79
2022/11/21 08:07:21;;;;;;;94.50;25.47;;;3.40;99.90;;;;;;5029292;28;20052;-79
2022/11/21 08:09:48;;;;;;;88.80;27.02;;;3.40;99.90;;;;;;5024725;28;20033;-80
2022/11/21 08:12:15;;;;;;;91.33;28.27;;;3.40;99.90;;;;;;5028532;28;20515;-80
2022/11/21 08:14:41;;;;;;;84.90;26.87;;;3.40;99.90;;;;;;5028409;28;20507;-75
2022/11/21 08:17:08;;;;;;;77.00;27.77;;;3.50;99.90;;;;;;5040200;28;20044;-79
2022/11/21 08:19:34;;;;;;;75.73;27.10;;;3.50;99.90;;;;;;5024560;28;20514;-80
2022/11/21 08:22:00;;;;;;;77.88;28.02;;;3.50;99.90;;;;;;5021534;28;20030;-78
2022/11/21 08:24:27;;;;;;;88.28;30.83;;;3.60;99.90;;;;;;5036445;28;20029;-78
2022/11/21 08:26:53;;;;;;;89.47;32.00;;;3.60;99.90;;;;;;5046817;28;20033;-79
2022/11/21 08:29:19;;;;;;;68.77;26.87;;;3.60;99.90;;;;;;5041756;28;20376;-80
2022/11/21 08:31:46;;;;;;;56.35;22.45;;;3.70;99.90;;;;;;5012715;28;20048;-78
2022/11/21 08:34:12;;;;;;;65.68;28.10;;;3.70;99.90;;;;;;5045212;28;20403;-78
2022/11/21 08:36:38;;;;;;;62.05;25.75;;;3.60;99.90;;;;;;5040757;28;20037;-78
2022/11/21 08:39:04;;;;;;;64.45;27.13;;;3.70;99.90;;;;;;5040919;28;20510;-79
2022/11/21 08:42:13;;;;;;;62.20;27.25;;;3.70;99.90;;;;;;5030863;28;20029;-78
2022/11/21 08:44:20;;;;;;;70.20;29.25;;;3.70;99.90;;;;;;5026953;28;20508;-75
2022/11/21 08:46:46;;;;;;;71.27;27.60;;;3.70;99.90;;;;;;5028385;28;20488;-79
2022/11/21 08:49:13;;;;;;;94.00;28.95;;;3.60;99.90;;;;;;5025015;28;20475;-81
2022/11/21 08:51:39;;;;;;;65.85;28.05;;;3.60;99.90;;;;;;5027623;28;20592;-80
2022/11/21 08:54:05;;;;;;;61.67;24.27;;;3.60;99.90;;;;;;5008190;28;20404;-79
2022/11/21 08:56:31;;;;;;;57.38;23.23;;;3.60;99.90;;;;;;5027948;28;20551;-78
2022/11/21 08:58:58;;;;;;;82.40;31.30;;;3.60;99.90;;;;;;5039510;28;20041;-79
2022/11/21 09:01:24;;;;;;;75.03;25.60;;;3.60;99.90;;;;;;5047822;28;20075;-79
2022/11/21 09:03:50;;;;;;;80.77;28.37;;;3.70;99.90;;;;;;5010557;28;20092;-79
2022/11/21 09:06:17;;;;;;;63.28;27.77;;;3.60;99.90;;;;;;5013163;28;20053;-77
2022/11/21 09:08:43;;;;;;;51.67;22.92;;;3.70;99.90;;;;;;5034156;28;20040;-79
2022/11/21 09:11:09;;;;;;;72.25;26.10;;;3.70;99.90;;;;;;5037268;28;20037;-78
2022/11/21 09:13:36;;;;;;;55.30;22.45;;;3.70;99.90;;;;;;5046584;28;20036;-79
2022/11/21 09:18:51;;;;;;;55.15;23.60;;;3.80;99.90;;;;;;5041522;28;20033;-79
2022/11/21 09:21:18;;;;;;;72.45;26.33;;;3.80;99.90;;;;;;5016084;28;20072;-78
2022/11/21 09:23:45;;;;;;;65.35;23.92;;;3.80;99.90;;;;;;5049563;28;20037;-79
2022/11/21 09:26:11;;;;;;;94.05;31.38;;;3.90;99.90;;;;;;5047210;28;20041;-81
2022/11/21 09:28:40;;;;;;;73.60;27.52;;;3.90;99.90;;;;;;5030791;28;20032;-79
2022/11/21 09:31:06;;;;;;;68.63;27.25;;;3.90;99.90;;;;;;5050891;28;20400;-80
2022/11/21 09:33:32;;;;;;;68.83;26.93;;;3.90;99.90;;;;;;5055098;28;20028;-78
2022/11/21 09:35:59;;;;;;;54.80;22.40;;;4.00;99.90;;;;;;5035816;28;20049;-81
2022/11/21 09:38:28;;;;;;;50.78;21.50;;;4.00;99.90;;;;;;5031606;28;20743;-81
2022/11/21 09:41:50;;;;;;;52.58;22.45;;;4.00;99.90;;;;;;5039750;28;20032;-80
2022/11/21 09:44:07;;;;;;;48.00;21.73;;;4.00;99.90;;;;;;5032636;28;20052;-80
2022/11/21 09:46:43;;;;;;;92.32;25.42;;;4.10;99.90;;;;;;5047629;28;20504;-81
2022/11/21 09:49:12;;;;;;;98.47;26.23;;;4.20;99.90;;;;;;5044057;28;20029;-81
2022/11/21 09:51:42;;;;;;;77.78;26.58;;;4.30;99.90;;;;;;5016103;28;20536;-78
2022/11/21 09:54:22;;;;;;;53.78;22.77;;;4.40;99.90;;;;;;5033348;28;20040;-83
2022/11/21 09:56:51;;;;;;;91.57;25.75;;;4.50;99.90;;;;;;5049693;28;20039;-82
2022/11/21 09:59:20;;;;;;;87.68;23.88;;;4.50;99.90;;;;;;5029014;28;20395;-79
2022/11/21 10:01:47;;;;;;;57.65;22.55;;;4.50;99.90;;;;;;5049191;28;20048;-77
2022/11/21 10:04:13;;;;;;;81.53;24.88;;;4.50;99.90;;;;;;5048573;28;20268;-80
2022/11/21 10:07:02;;;;;;;125.00;26.55;;;4.50;99.90;;;;;;5034868;28;20052;-78
2022/11/21 10:09:39;;;;;;;97.55;28.77;;;4.60;99.90;;;;;;5029974;28;20056;-80
2022/11/21 10:15:16;;;;;;;66.10;25.88;;;4.60;99.90;;;;;;5047674;28;20037;-77
2022/11/21 10:18:30;;;;;;;110.57;28.10;;;4.60;99.90;;;;;;5042422;28;20479;-78
2022/11/21 10:21:15;;;;;;;;;;;4.70;99.90;;;;;;5046578;28;20044;-79
2022/11/21 10:24:08;;;;;;;112.03;26.80;;;4.70;99.90;;;;;;5049863;28;19943;-78
2022/11/21 10:26:40;;;;;;;87.72;25.05;;;4.70;99.90;;;;;;5048385;28;20491;-78
2022/11/21 10:29:14;;;;;;;81.57;23.45;;;4.80;99.90;;;;;;5024487;28;20443;-80
2022/11/21 10:31:42;;;;;;;158.27;26.23;;;4.80;99.90;;;;;;5047679;28;20518;-79
2022/11/21 10:34:14;;;;;;;121.05;28.15;;;4.90;99.90;;;;;;5018253;28;20044;-80
2022/11/21 10:36:46;;;;;;;145.57;26.48;;;4.90;99.90;;;;;;5051048;28;20504;-78
2022/11/21 10:39:21;;;;;;;181.00;28.55;;;4.90;99.90;;;;;;5028280;28;20037;-79
2022/11/21 10:41:57;;;;;;;100.05;23.83;;;5.00;99.90;;;;;;5047500;28;21283;-79
2022/11/21 10:47:27;;;;;;;148.13;34.80;;;5.00;99.90;;;;;;5045668;28;20037;-78
2022/11/21 10:50:04;;;;;;;116.05;30.90;;;5.00;99.90;;;;;;5030870;28;20854;-77
2022/11/21 10:52:53;;;;;;;88.65;31.77;;;5.00;99.90;;;;;;5052236;28;20025;-79
2022/11/21 10:55:20;;;;;;;98.07;26.33;;;5.10;99.90;;;;;;5047609;28;20048;-79
2022/11/21 10:57:48;;;;;;;101.72;24.95;;;5.10;99.90;;;;;;5040643;28;20528;-76
2022/11/21 11:00:20;;;;;;;101.97;26.50;;;5.20;99.90;;;;;;5049161;28;20578;-80
2022/11/21 11:02:55;;;;;;;145.15;33.90;;;5.20;99.90;;;;;;5014701;28;20049;-79
2022/11/21 11:05:26;;;;;;;97.30;24.13;;;5.30;99.90;;;;;;5032757;28;20029;-79
2022/11/21 11:08:08;;;;;;;90.32;25.45;;;5.30;99.90;;;;;;5042218;28;20161;-80
2022/11/21 11:10:37;;;;;;;155.93;27.52;;;5.40;99.90;;;;;;5053674;28;20033;-79
2022/11/21 11:16:05;;;;;;;121.90;32.40;;;5.50;99.90;;;;;;5050672;28;20484;-79
2022/11/21 11:18:34;;;;;;;135.88;32.10;;;5.50;99.90;;;;;;5043089;28;20036;-82
2022/11/21 11:21:27;;;;;;;104.85;26.60;;;5.50;99.90;;;;;;5050867;28;20491;-80
2022/11/21 11:24:05;;;;;;;71.85;23.48;;;5.50;99.90;;;;;;5048942;28;20439;-81
2022/11/21 11:26:31;;;;;;;89.07;27.52;;;5.60;99.90;;;;;;5051717;28;20399;-80
2022/11/21 11:29:13;;;;;;;76.18;28.63;;;5.60;99.90;;;;;;5025004;28;20045;-80
2022/11/21 11:31:41;;;;;;;91.07;29.58;;;5.70;99.90;;;;;;5016869;28;20381;-79
2022/11/21 11:34:13;;;;;;;73.07;26.92;;;5.70;99.90;;;;;;5034844;28;20491;-81
2022/11/21 11:36:45;;;;;;;70.93;27.67;;;5.80;99.90;;;;;;5035598;28;20047;-80
2022/11/21 11:39:35;;;;;;;108.00;33.63;;;5.90;99.90;;;;;;5022661;28;20041;-80
2022/11/21 11:48:03;;;;;;;81.72;28.55;;;6.00;99.90;;;;;;5023124;28;20513;-80
2022/11/21 11:50:49;;;;;;;80.38;32.05;;;6.10;99.90;;;;;;5047157;28;20029;-79
2022/11/21 11:53:36;;;;;;;68.03;30.52;;;6.20;99.90;;;;;;5051820;28;20044;-80
2022/11/21 11:56:10;;;;;;;78.70;31.95;;;6.20;99.90;;;;;;5030904;28;20241;-77
2022/11/21 11:58:54;;;;;;;71.72;30.77;;;6.30;99.90;;;;;;5041008;28;20040;-78
2022/11/21 12:01:28;;;;;;;75.97;33.60;;;6.40;99.90;;;;;;5051713;28;20049;-79
2022/11/21 12:04:04;;;;;;;64.45;29.08;;;6.50;99.90;;;;;;5000068;28;20449;-77
2022/11/21 12:06:36;;;;;;;63.15;27.95;;;6.60;99.90;;;;;;5048672;28;20037;-80
2022/11/21 12:09:23;;;;;;;68.70;29.80;;;6.70;99.90;;;;;;5041543;28;20116;-76
2022/11/21 12:12:08;;;;;;;83.22;35.10;;;6.80;99.90;;;;;;5050033;28;20040;-80
2022/11/21 12:18:06;;;;;;;69.72;31.88;;;6.80;99.90;;;;;;5028208;28;20048;-78
2022/11/21 12:20:53;;;;;;;70.13;31.80;;;6.80;99.90;;;;;;5050414;28;20128;-78
2022/11/21 12:23:22;;;;;;;55.72;28.52;;;6.80;99.90;;;;;;5031872;28;20048;-79
2022/11/21 12:26:12;;;;;;;62.70;30.20;;;6.80;99.90;;;;;;5051036;28;20431;-77
2022/11/21 12:29:04;;;;;;;58.65;27.83;;;6.90;99.90;;;;;;5024890;28;20060;-78
2022/11/21 12:31:54;;;;;;;57.10;28.95;;;7.10;99.90;;;;;;5048854;28;20033;-78
2022/11/21 12:34:29;;;;;;;58.75;29.42;;;7.10;99.90;;;;;;5015006;28;20496;-80
2022/11/21 12:37:00;;;;;;;59.42;30.25;;;7.20;99.90;;;;;;5049410;28;20032;-79
2022/11/21 12:39:55;;;;;;;56.65;29.65;;;7.30;99.90;;;;;;5038048;28;20048;-79
2022/11/21 12:42:48;;;;;;;78.88;37.63;;;7.30;99.90;;;;;;5012112;28;20490;-79
2022/11/21 12:45:17;;;;;;;64.32;32.17;;;7.30;99.90;;;;;;5027403;28;20048;-79
2022/11/21 12:56:43;;;;;;;59.75;28.35;;;7.40;99.90;;;;;;5048255;28;20044;-79
2022/11/21 12:59:13;;;;;;;49.35;26.02;;;7.40;99.90;;;;;;5024633;28;20045;-77
2022/11/21 13:02:08;;;;;;;53.30;27.23;;;7.40;99.90;;;;;;5032752;28;20056;-81
2022/11/21 13:04:39;;;;;;;52.92;28.40;;;7.50;99.90;;;;;;5052037;28;20057;-80
2022/11/21 13:07:06;;;;;;;48.05;28.58;;;7.50;99.90;;;;;;5032245;28;20043;-79
2022/11/21 13:09:40;;;;;;;51.40;28.33;;;7.50;99.90;;;;;;5025811;28;20037;-78
2022/11/21 13:12:25;;;;;;;48.10;28.00;;;7.50;99.90;;;;;;5048178;28;20487;-80
2022/11/21 13:15:18;;;;;;;42.45;24.52;;;7.50;99.90;;;;;;5047502;28;20029;-80
2022/11/21 13:18:43;;;;;;;36.70;22.25;;;7.50;99.90;;;;;;5041497;28;21287;-78
2022/11/21 13:21:41;;;;;;;31.40;20.55;;;7.50;99.90;;;;;;5026962;28;20053;-80
2022/11/21 13:24:08;;;;;;;37.97;25.15;;;7.50;99.90;;;;;;5028786;28;20045;-80
2022/11/21 13:26:40;;;;;;;36.55;23.85;;;7.50;99.90;;;;;;5048294;28;20392;-78